sensor_id;sensor_type;location;lat;lon;timestamp;pressure;altitude;pressure_sealevel;temperature;humidity
8298;BME280;4187;42.778;23.242;2023-04-08T00:02:26;95399.13;;;5.75;100.00
8298;BME280;4187;42.778;23.242;2023-04-08T00:04:53;95397.44;;;5.74;100.00
8298;BME280;4187;42.778;23.242;2023-04-08T00:07:21;95393.66;;;5.78;100.00
8298;BME280;4187;42.778;23.242;2023-04-08T00:09:48;95396.50;;;5.75;100.00
8298;BME280;4187;42.778;23.242;2023-04-08T00:12:15;95391.03;;;5.78;100.00
8298;BME280;4187;42.778;23.242;2023-04-08T00:14:42;95390.91;;;5.80;100.00
8298;BME280;4187;42.778;23.242;2023-04-08T00:17:09;95379.69;;;5.67;100.00
8298;BME280;4187;42.778;23.242;2023-04-08T00:19:36;95385.41;;;5.72;100.00
8298;BME280;4187;42.778;23.242;2023-04-08T00:22:02;95389.47;;;5.76;100.00
8298;BME280;4187;42.778;23.242;2023-04-08T00:24:31;95393.16;;;5.73;100.00
8298;BME280;4187;42.778;23.242;2023-04-08T00:26:57;95389.59;;;5.74;100.00
8298;BME280;4187;42.778;23.242;2023-04-08T00:29:25;95369.72;;;5.48;100.00
8298;BME280;4187;42.778;23.242;2023-04-08T00:31:52;95375.53;;;5.40;100.00
8298;BME280;4187;42.778;23.242;2023-04-08T00:34:18;95379.16;;;5.38;100.00
8298;BME280;4187;42.778;23.242;2023-04-08T00:36:46;95397.75;;;5.35;100.00
8298;BME280;4187;42.778;23.242;2023-04-08T00:39:13;95384.66;;;5.35;100.00
8298;BME280;4187;42.778;23.242;2023-04-08T00:41:41;95390.19;;;5.30;100.00
8298;BME280;4187;42.778;23.242;2023-04-08T00:44:08;95392.31;;;5.25;100.00
8298;BME280;4187;42.778;23.242;2023-04-08T00:46:37;95394.94;;;5.25;100.00
8298;BME280;4187;42.778;23.242;2023-04-08T00:49:04;95399.09;;;5.28;100.00
8298;BME280;4187;42.778;23.242;2023-04-08T00:51:32;95407.69;;;5.30;100.00
8298;BME280;4187;42.778;23.242;2023-04-08T00:54:00;95395.06;;;5.24;100.00
8298;BME280;4187;42.778;23.242;2023-04-08T00:56:30;95392.22;;;5.27;100.00
8298;BME280;4187;42.778;23.242;2023-04-08T00:59:00;95381.22;;;5.22;100.00
8298;BME280;4187;42.778;23.242;2023-04-08T01:01:32;95374.84;;;5.26;100.00
8298;BME280;4187;42.778;23.242;2023-04-08T01:04:06;95393.66;;;5.31;100.00
8298;BME280;4187;42.778;23.242;2023-04-08T01:06:38;95388.97;;;5.23;100.00
8298;BME280;4187;42.778;23.242;2023-04-08T01:09:07;95397.84;;;5.33;100.00
8298;BME280;4187;42.778;23.242;2023-04-08T01:11:37;95389.38;;;5.30;100.00
8298;BME280;4187;42.778;23.242;2023-04-08T01:14:11;95392.59;;;5.33;100.00
8298;BME280;4187;42.778;23.242;2023-04-08T01:16:43;95389.16;;;5.33;100.00
8298;BME280;4187;42.778;23.242;2023-04-08T01:19:18;95398.47;;;5.37;100.00
8298;BME280;4187;42.778;23.242;2023-04-08T01:21:47;95396.91;;;5.34;100.00
8298;BME280;4187;42.778;23.242;2023-04-08T01:24:19;95399.22;;;5.26;100.00
8298;BME280;4187;42.778;23.242;2023-04-08T01:26:50;95402.06;;;5.23;100.00
8298;BME280;4187;42.778;23.242;2023-04-08T01:29:18;95400.59;;;5.19;100.00
8298;BME280;4187;42.778;23.242;2023-04-08T01:31:46;95408.44;;;5.19;100.00
8298;BME280;4187;42.778;23.242;2023-04-08T01:34:14;95406.94;;;5.04;100.00
8298;BME280;4187;42.778;23.242;2023-04-08T01:36:43;95411.53;;;5.01;100.00
8298;BME280;4187;42.778;23.242;2023-04-08T01:39:11;95411.44;;;5.02;100.00
8298;BME280;4187;42.778;23.242;2023-04-08T01:41:38;95410.38;;;5.05;100.00
8298;BME280;4187;42.778;23.242;2023-04-08T01:44:07;95401.28;;;4.98;100.00
8298;BME280;4187;42.778;23.242;2023-04-08T01:46:36;95395.75;;;5.02;100.00
8298;BME280;4187;42.778;23.242;2023-04-08T01:49:04;95405.53;;;5.11;100.00
8298;BME280;4187;42.778;23.242;2023-04-08T01:51:32;95406.94;;;5.04;100.00
8298;BME280;4187;42.778;23.242;2023-04-08T01:54:00;95414.34;;;5.10;100.00
8298;BME280;4187;42.778;23.242;2023-04-08T01:56:28;95418.03;;;5.08;100.00
8298;BME280;4187;42.778;23.242;2023-04-08T01:58:59;95419.78;;;5.07;100.00
8298;BME280;4187;42.778;23.242;2023-04-08T02:01:31;95431.09;;;5.08;100.00
8298;BME280;4187;42.778;23.242;2023-04-08T02:04:01;95425.31;;;5.15;100.00
8298;BME280;4187;42.778;23.242;2023-04-08T02:06:29;95422.50;;;5.06;100.00
8298;BME280;4187;42.778;23.242;2023-04-08T02:08:56;95429.63;;;5.04;100.00
8298;BME280;4187;42.778;23.242;2023-04-08T02:11:24;95436.03;;;5.00;100.00
8298;BME280;4187;42.778;23.242;2023-04-08T02:13:53;95415.25;;;4.86;100.00
8298;BME280;4187;42.778;23.242;2023-04-08T02:16:22;95433.03;;;4.80;100.00
8298;BME280;4187;42.778;23.242;2023-04-08T02:18:55;95417.78;;;4.62;100.00
8298;BME280;4187;42.778;23.242;2023-04-08T02:21:29;95438.47;;;4.77;100.00
8298;BME280;4187;42.778;23.242;2023-04-08T02:24:02;95438.13;;;4.82;100.00
8298;BME280;4187;42.778;23.242;2023-04-08T02:26:32;95447.44;;;4.86;100.00
8298;BME280;4187;42.778;23.242;2023-04-08T02:29:00;95448.06;;;4.90;100.00
8298;BME280;4187;42.778;23.242;2023-04-08T02:31:28;95430.00;;;4.74;100.00
8298;BME280;4187;42.778;23.242;2023-04-08T02:33:57;95444.41;;;4.79;100.00
8298;BME280;4187;42.778;23.242;2023-04-08T02:36:24;95434.28;;;4.75;100.00
8298;BME280;4187;42.778;23.242;2023-04-08T02:38:51;95435.84;;;4.77;100.00
8298;BME280;4187;42.778;23.242;2023-04-08T02:41:18;95437.19;;;4.83;100.00
8298;BME280;4187;42.778;23.242;2023-04-08T02:43:47;95430.50;;;4.92;100.00
8298;BME280;4187;42.778;23.242;2023-04-08T02:46:19;95435.53;;;4.95;100.00
8298;BME280;4187;42.778;23.242;2023-04-08T02:48:46;95430.88;;;4.98;100.00
8298;BME280;4187;42.778;23.242;2023-04-08T02:51:15;95436.75;;;5.02;100.00
8298;BME280;4187;42.778;23.242;2023-04-08T02:53:41;95440.00;;;5.05;100.00
8298;BME280;4187;42.778;23.242;2023-04-08T02:56:09;95433.50;;;5.11;100.00
8298;BME280;4187;42.778;23.242;2023-04-08T02:58:36;95437.06;;;5.10;100.00
8298;BME280;4187;42.778;23.242;2023-04-08T03:01:04;95430.63;;;5.14;100.00
8298;BME280;4187;42.778;23.242;2023-04-08T03:03:31;95433.16;;;5.15;100.00
8298;BME280;4187;42.778;23.242;2023-04-08T03:05:58;95441.00;;;5.15;100.00
8298;BME280;4187;42.778;23.242;2023-04-08T03:08:26;95401.81;;;5.03;100.00
8298;BME280;4187;42.778;23.242;2023-04-08T03:10:53;95430.13;;;5.21;100.00
8298;BME280;4187;42.778;23.242;2023-04-08T03:13:20;95431.06;;;5.20;100.00
8298;BME280;4187;42.778;23.242;2023-04-08T03:15:47;95432.00;;;5.19;100.00
8298;BME280;4187;42.778;23.242;2023-04-08T03:18:14;95432.25;;;5.16;100.00
8298;BME280;4187;42.778;23.242;2023-04-08T03:20:41;95429.72;;;5.15;100.00
8298;BME280;4187;42.778;23.242;2023-04-08T03:23:07;95425.81;;;5.20;100.00
8298;BME280;4187;42.778;23.242;2023-04-08T03:25:36;95416.34;;;5.07;100.00
8298;BME280;4187;42.778;23.242;2023-04-08T03:28:03;95404.44;;;5.03;100.00
8298;BME280;4187;42.778;23.242;2023-04-08T03:30:30;95424.69;;;5.12;100.00
8298;BME280;4187;42.778;23.242;2023-04-08T03:32:57;95418.84;;;5.08;100.00
8298;BME280;4187;42.778;23.242;2023-04-08T03:35:24;95419.59;;;5.10;100.00
8298;BME280;4187;42.778;23.242;2023-04-08T03:37:50;95431.06;;;5.20;100.00
8298;BME280;4187;42.778;23.242;2023-04-08T03:40:18;95438.06;;;5.20;100.00
8298;BME280;4187;42.778;23.242;2023-04-08T03:42:47;95438.41;;;5.15;100.00
8298;BME280;4187;42.778;23.242;2023-04-08T03:45:14;95439.03;;;5.19;100.00
8298;BME280;4187;42.778;23.242;2023-04-08T03:47:41;95436.28;;;5.20;100.00
8298;BME280;4187;42.778;23.242;2023-04-08T03:50:08;95433.66;;;5.20;100.00
8298;BME280;4187;42.778;23.242;2023-04-08T03:52:35;95446.88;;;5.19;100.00
8298;BME280;4187;42.778;23.242;2023-04-08T03:55:02;95423.13;;;5.09;100.00
8298;BME280;4187;42.778;23.242;2023-04-08T03:57:29;95438.19;;;5.18;100.00
8298;BME280;4187;42.778;23.242;2023-04-08T03:59:58;95434.84;;;5.16;100.00
8298;BME280;4187;42.778;23.242;2023-04-08T04:02:25;95416.75;;;5.01;100.00
8298;BME280;4187;42.778;23.242;2023-04-08T04:04:52;95438.63;;;5.12;100.00
8298;BME280;4187;42.778;23.242;2023-04-08T04:07:19;95437.50;;;5.27;100.00
8298;BME280;4187;42.778;23.242;2023-04-08T04:09:46;95423.75;;;5.13;100.00
8298;BME280;4187;42.778;23.242;2023-04-08T04:12:13;95419.94;;;4.93;100.00
8298;BME280;4187;42.778;23.242;2023-04-08T04:14:40;95437.69;;;5.01;100.00
8298;BME280;4187;42.778;23.242;2023-04-08T04:17:08;95444.69;;;5.00;100.00
8298;BME280;4187;42.778;23.242;2023-04-08T04:19:35;95440.31;;;5.01;100.00
8298;BME280;4187;42.778;23.242;2023-04-08T04:22:02;95449.63;;;5.05;100.00
8298;BME280;4187;42.778;23.242;2023-04-08T04:24:29;95435.19;;;4.99;100.00
8298;BME280;4187;42.778;23.242;2023-04-08T04:26:56;95433.03;;;5.17;100.00
8298;BME280;4187;42.778;23.242;2023-04-08T04:29:23;95451.94;;;5.46;100.00
8298;BME280;4187;42.778;23.242;2023-04-08T04:31:50;95451.59;;;5.74;100.00
8298;BME280;4187;42.778;23.242;2023-04-08T04:34:18;95459.72;;;5.94;100.00
8298;BME280;4187;42.778;23.242;2023-04-08T04:36:45;95456.31;;;6.05;100.00
8298;BME280;4187;42.778;23.242;2023-04-08T04:39:12;95453.47;;;6.08;100.00
8298;BME280;4187;42.778;23.242;2023-04-08T04:41:39;95452.00;;;6.04;100.00
8298;BME280;4187;42.778;23.242;2023-04-08T04:44:06;95446.63;;;5.82;100.00
8298;BME280;4187;42.778;23.242;2023-04-08T04:46:32;95449.31;;;5.69;100.00
8298;BME280;4187;42.778;23.242;2023-04-08T04:48:59;95452.09;;;5.55;100.00
8298;BME280;4187;42.778;23.242;2023-04-08T04:51:30;95446.78;;;5.44;100.00
8298;BME280;4187;42.778;23.242;2023-04-08T04:53:56;95429.13;;;5.35;100.00
8298;BME280;4187;42.778;23.242;2023-04-08T04:56:23;95444.16;;;5.44;100.00
8298;BME280;4187;42.778;23.242;2023-04-08T04:58:51;95455.47;;;5.44;100.00
8298;BME280;4187;42.778;23.242;2023-04-08T05:01:18;95443.84;;;5.49;100.00
8298;BME280;4187;42.778;23.242;2023-04-08T05:03:45;95416.78;;;5.37;100.00
8298;BME280;4187;42.778;23.242;2023-04-08T05:06:12;95459.66;;;5.47;100.00
8298;BME280;4187;42.778;23.242;2023-04-08T05:08:40;95458.44;;;5.40;100.00
8298;BME280;4187;42.778;23.242;2023-04-08T05:11:08;95457.59;;;5.39;100.00
8298;BME280;4187;42.778;23.242;2023-04-08T05:13:35;95457.38;;;5.42;100.00
8298;BME280;4187;42.778;23.242;2023-04-08T05:16:02;95459.28;;;5.40;100.00
8298;BME280;4187;42.778;23.242;2023-04-08T05:18:29;95460.28;;;5.51;100.00
8298;BME280;4187;42.778;23.242;2023-04-08T05:20:55;95456.38;;;5.56;100.00
8298;BME280;4187;42.778;23.242;2023-04-08T05:23:22;95452.31;;;5.52;100.00
8298;BME280;4187;42.778;23.242;2023-04-08T05:25:51;95454.31;;;5.49;100.00
8298;BME280;4187;42.778;23.242;2023-04-08T05:28:17;95455.13;;;5.49;100.00
8298;BME280;4187;42.778;23.242;2023-04-08T05:30:48;95455.75;;;5.53;100.00
8298;BME280;4187;42.778;23.242;2023-04-08T05:33:15;95455.41;;;5.57;100.00
8298;BME280;4187;42.778;23.242;2023-04-08T05:35:42;95455.31;;;5.59;100.00
8298;BME280;4187;42.778;23.242;2023-04-08T05:38:09;95445.47;;;5.62;100.00
8298;BME280;4187;42.778;23.242;2023-04-08T05:40:36;95452.94;;;6.03;100.00
8298;BME280;4187;42.778;23.242;2023-04-08T05:43:04;95463.25;;;6.63;100.00
8298;BME280;4187;42.778;23.242;2023-04-08T05:45:31;95465.19;;;7.28;100.00
8298;BME280;4187;42.778;23.242;2023-04-08T05:47:58;95469.09;;;7.55;100.00
8298;BME280;4187;42.778;23.242;2023-04-08T05:50:24;95464.91;;;7.53;100.00
8298;BME280;4187;42.778;23.242;2023-04-08T05:52:51;95472.81;;;7.42;100.00
8298;BME280;4187;42.778;23.242;2023-04-08T05:55:18;95469.94;;;7.34;100.00
8298;BME280;4187;42.778;23.242;2023-04-08T05:57:45;95464.59;;;7.24;100.00
8298;BME280;4187;42.778;23.242;2023-04-08T06:00:13;95462.56;;;7.16;100.00
8298;BME280;4187;42.778;23.242;2023-04-08T06:02:41;95460.06;;;7.15;100.00
8298;BME280;4187;42.778;23.242;2023-04-08T06:05:08;95462.69;;;7.15;100.00
8298;BME280;4187;42.778;23.242;2023-04-08T06:07:35;95462.31;;;7.19;100.00
8298;BME280;4187;42.778;23.242;2023-04-08T06:10:02;95448.03;;;7.12;100.00
8298;BME280;4187;42.778;23.242;2023-04-08T06:12:29;95461.97;;;7.24;100.00
8298;BME280;4187;42.778;23.242;2023-04-08T06:14:56;95456.59;;;7.26;100.00
8298;BME280;4187;42.778;23.242;2023-04-08T06:17:24;95453.97;;;7.37;100.00
8298;BME280;4187;42.778;23.242;2023-04-08T06:19:51;95459.22;;;7.37;100.00
8298;BME280;4187;42.778;23.242;2023-04-08T06:22:18;95461.47;;;7.30;100.00
8298;BME280;4187;42.778;23.242;2023-04-08T06:24:46;95461.38;;;7.32;100.00
8298;BME280;4187;42.778;23.242;2023-04-08T06:27:13;95433.34;;;7.21;100.00
8298;BME280;4187;42.778;23.242;2023-04-08T06:29:40;95459.91;;;7.39;100.00
8298;BME280;4187;42.778;23.242;2023-04-08T06:32:07;95455.63;;;7.49;100.00
8298;BME280;4187;42.778;23.242;2023-04-08T06:34:35;95400.84;;;7.33;100.00
8298;BME280;4187;42.778;23.242;2023-04-08T06:37:02;95463.66;;;7.79;100.00
8298;BME280;4187;42.778;23.242;2023-04-08T06:39:29;95458.63;;;7.87;100.00
8298;BME280;4187;42.778;23.242;2023-04-08T06:41:56;95465.06;;;7.94;100.00
8298;BME280;4187;42.778;23.242;2023-04-08T06:44:24;95465.38;;;8.01;100.00
8298;BME280;4187;42.778;23.242;2023-04-08T06:46:51;95471.31;;;8.14;100.00
8298;BME280;4187;42.778;23.242;2023-04-08T06:49:17;95468.88;;;8.22;100.00
8298;BME280;4187;42.778;23.242;2023-04-08T06:51:46;95476.75;;;8.33;100.00
8298;BME280;4187;42.778;23.242;2023-04-08T06:54:13;95456.72;;;8.21;100.00
8298;BME280;4187;42.778;23.242;2023-04-08T06:56:40;95476.41;;;8.37;100.00
8298;BME280;4187;42.778;23.242;2023-04-08T06:59:07;95463.28;;;8.26;100.00
8298;BME280;4187;42.778;23.242;2023-04-08T07:01:34;95461.13;;;8.20;100.00
8298;BME280;4187;42.778;23.242;2023-04-08T07:04:01;95481.09;;;8.23;100.00
8298;BME280;4187;42.778;23.242;2023-04-08T07:06:28;95398.22;;;7.76;100.00
8298;BME280;4187;42.778;23.242;2023-04-08T07:08:56;95482.75;;;8.24;100.00
8298;BME280;4187;42.778;23.242;2023-04-08T07:11:23;95481.09;;;8.23;100.00
8298;BME280;4187;42.778;23.242;2023-04-08T07:13:50;95477.50;;;8.35;100.00
8298;BME280;4187;42.778;23.242;2023-04-08T07:16:17;95478.50;;;8.43;100.00
8298;BME280;4187;42.778;23.242;2023-04-08T07:18:44;95482.22;;;8.41;100.00
8298;BME280;4187;42.778;23.242;2023-04-08T07:21:11;95486.38;;;8.43;100.00
8298;BME280;4187;42.778;23.242;2023-04-08T07:23:38;95490.41;;;8.59;100.00
8298;BME280;4187;42.778;23.242;2023-04-08T07:26:07;95493.41;;;8.75;100.00
8298;BME280;4187;42.778;23.242;2023-04-08T07:28:34;95493.09;;;8.89;100.00
8298;BME280;4187;42.778;23.242;2023-04-08T07:31:12;95486.78;;;9.01;100.00
8298;BME280;4187;42.778;23.242;2023-04-08T07:33:40;95476.56;;;9.08;100.00
8298;BME280;4187;42.778;23.242;2023-04-08T07:36:07;95492.66;;;9.35;100.00
8298;BME280;4187;42.778;23.242;2023-04-08T07:38:34;95488.75;;;9.39;100.00
8298;BME280;4187;42.778;23.242;2023-04-08T07:41:01;95500.34;;;9.57;100.00
8298;BME280;4187;42.778;23.242;2023-04-08T07:43:31;95485.38;;;9.57;100.00
8298;BME280;4187;42.778;23.242;2023-04-08T07:46:02;95492.38;;;9.78;100.00
8298;BME280;4187;42.778;23.242;2023-04-08T07:48:29;95500.28;;;9.87;100.00
8298;BME280;4187;42.778;23.242;2023-04-08T07:50:57;95501.97;;;9.88;100.00
8298;BME280;4187;42.778;23.242;2023-04-08T07:53:24;95481.41;;;9.82;100.00
8298;BME280;4187;42.778;23.242;2023-04-08T07:55:52;95502.13;;;9.96;100.00
8298;BME280;4187;42.778;23.242;2023-04-08T07:58:19;95498.59;;;9.67;99.98
8298;BME280;4187;42.778;23.242;2023-04-08T08:00:47;95497.47;;;9.70;100.00
8298;BME280;4187;42.778;23.242;2023-04-08T08:03:14;95514.03;;;9.81;100.00
8298;BME280;4187;42.778;23.242;2023-04-08T08:05:41;95511.50;;;9.80;100.00
8298;BME280;4187;42.778;23.242;2023-04-08T08:08:08;95519.41;;;9.80;99.84
8298;BME280;4187;42.778;23.242;2023-04-08T08:10:36;95509.97;;;9.68;100.00
8298;BME280;4187;42.778;23.242;2023-04-08T08:13:03;95522.84;;;9.71;100.00
8298;BME280;4187;42.778;23.242;2023-04-08T08:15:30;95531.22;;;9.76;100.00
8298;BME280;4187;42.778;23.242;2023-04-08T08:17:58;95528.69;;;9.65;100.00
8298;BME280;4187;42.778;23.242;2023-04-08T08:20:25;95515.16;;;9.48;100.00
8298;BME280;4187;42.778;23.242;2023-04-08T08:22:52;95524.09;;;9.67;100.00
8298;BME280;4187;42.778;23.242;2023-04-08T08:25:19;95532.03;;;9.76;100.00
8298;BME280;4187;42.778;23.242;2023-04-08T08:27:46;95511.63;;;9.69;100.00
8298;BME280;4187;42.778;23.242;2023-04-08T08:30:13;95523.59;;;9.82;100.00
8298;BME280;4187;42.778;23.242;2023-04-08T08:32:40;95514.19;;;9.89;100.00
8298;BME280;4187;42.778;23.242;2023-04-08T08:35:08;95508.09;;;9.98;100.00
8298;BME280;4187;42.778;23.242;2023-04-08T08:37:36;95504.75;;;10.06;100.00
8298;BME280;4187;42.778;23.242;2023-04-08T08:40:03;95477.56;;;9.96;100.00
8298;BME280;4187;42.778;23.242;2023-04-08T08:42:30;95495.19;;;9.95;100.00
8298;BME280;4187;42.778;23.242;2023-04-08T08:45:00;95496.97;;;9.95;100.00
8298;BME280;4187;42.778;23.242;2023-04-08T08:47:28;95496.69;;;9.88;100.00
8298;BME280;4187;42.778;23.242;2023-04-08T08:49:54;95505.44;;;9.98;100.00
8298;BME280;4187;42.778;23.242;2023-04-08T08:52:23;95506.16;;;10.00;100.00
8298;BME280;4187;42.778;23.242;2023-04-08T08:54:57;95509.34;;;10.04;100.00
8298;BME280;4187;42.778;23.242;2023-04-08T08:57:25;95501.72;;;10.01;100.00
8298;BME280;4187;42.778;23.242;2023-04-08T08:59:52;95514.78;;;10.12;100.00
8298;BME280;4187;42.778;23.242;2023-04-08T09:02:23;95516.78;;;10.29;99.83
8298;BME280;4187;42.778;23.242;2023-04-08T09:04:56;95516.66;;;10.50;100.00
8298;BME280;4187;42.778;23.242;2023-04-08T09:07:25;95512.19;;;10.60;97.97
8298;BME280;4187;42.778;23.242;2023-04-08T09:09:53;95514.16;;;10.58;98.69
8298;BME280;4187;42.778;23.242;2023-04-08T09:12:21;95517.78;;;10.66;99.00
8298;BME280;4187;42.778;23.242;2023-04-08T09:14:48;95505.94;;;10.80;100.00
8298;BME280;4187;42.778;23.242;2023-04-08T09:17:15;95509.00;;;10.95;99.35
8298;BME280;4187;42.778;23.242;2023-04-08T09:20:07;95510.78;;;11.04;96.71
8298;BME280;4187;42.778;23.242;2023-04-08T09:23:00;95517.72;;;10.95;96.41
8298;BME280;4187;42.778;23.242;2023-04-08T09:25:28;95514.81;;;10.98;95.29
8298;BME280;4187;42.778;23.242;2023-04-08T09:27:56;95523.41;;;11.10;95.40
8298;BME280;4187;42.778;23.242;2023-04-08T09:30:24;95515.34;;;11.11;94.10
8298;BME280;4187;42.778;23.242;2023-04-08T09:32:53;95519.63;;;11.31;95.54
8298;BME280;4187;42.778;23.242;2023-04-08T09:35:21;95523.50;;;11.37;94.61
8298;BME280;4187;42.778;23.242;2023-04-08T09:37:49;95510.28;;;11.27;95.08
8298;BME280;4187;42.778;23.242;2023-04-08T09:40:17;95497.41;;;11.52;100.00
8298;BME280;4187;42.778;23.242;2023-04-08T09:42:46;95501.38;;;12.47;100.00
8298;BME280;4187;42.778;23.242;2023-04-08T09:45:16;95513.53;;;13.10;91.21
8298;BME280;4187;42.778;23.242;2023-04-08T09:47:55;95515.66;;;12.89;88.37
8298;BME280;4187;42.778;23.242;2023-04-08T09:50:30;95500.69;;;12.80;88.92
8298;BME280;4187;42.778;23.242;2023-04-08T09:53:00;95499.72;;;12.64;89.15
8298;BME280;4187;42.778;23.242;2023-04-08T09:55:33;95498.28;;;12.69;89.76
8298;BME280;4187;42.778;23.242;2023-04-08T09:58:03;95507.59;;;12.73;87.31
8298;BME280;4187;42.778;23.242;2023-04-08T10:00:35;95491.66;;;12.91;87.13
8298;BME280;4187;42.778;23.242;2023-04-08T10:03:09;95491.56;;;13.18;87.65
8298;BME280;4187;42.778;23.242;2023-04-08T10:05:37;95488.94;;;13.52;88.50
8298;BME280;4187;42.778;23.242;2023-04-08T10:08:07;95487.06;;;13.70;85.18
8298;BME280;4187;42.778;23.242;2023-04-08T10:10:38;95477.75;;;14.00;85.14
8298;BME280;4187;42.778;23.242;2023-04-08T10:13:06;95474.81;;;14.19;83.28
8298;BME280;4187;42.778;23.242;2023-04-08T10:15:34;95474.88;;;14.35;82.85
8298;BME280;4187;42.778;23.242;2023-04-08T10:18:31;95478.34;;;14.35;81.84
8298;BME280;4187;42.778;23.242;2023-04-08T10:21:02;95472.47;;;14.16;82.16
8298;BME280;4187;42.778;23.242;2023-04-08T10:23:53;95455.16;;;13.96;83.52
8298;BME280;4187;42.778;23.242;2023-04-08T10:26:33;95461.53;;;14.11;84.37
8298;BME280;4187;42.778;23.242;2023-04-08T10:29:31;95459.00;;;14.09;82.88
8298;BME280;4187;42.778;23.242;2023-04-08T10:31:58;95466.63;;;14.04;83.64
8298;BME280;4187;42.778;23.242;2023-04-08T10:34:26;95444.97;;;13.75;80.83
8298;BME280;4187;42.778;23.242;2023-04-08T10:36:54;95417.38;;;13.60;80.91
8298;BME280;4187;42.778;23.242;2023-04-08T10:39:24;95454.56;;;13.76;81.71
8298;BME280;4187;42.778;23.242;2023-04-08T10:41:53;95451.78;;;13.77;84.30
8298;BME280;4187;42.778;23.242;2023-04-08T10:44:22;95450.91;;;13.69;83.64
8298;BME280;4187;42.778;23.242;2023-04-08T10:46:50;95435.63;;;13.63;82.16
8298;BME280;4187;42.778;23.242;2023-04-08T10:49:17;95433.53;;;13.74;83.21
8298;BME280;4187;42.778;23.242;2023-04-08T10:51:45;95437.63;;;14.03;83.43
8298;BME280;4187;42.778;23.242;2023-04-08T10:54:13;95420.88;;;14.10;82.23
8298;BME280;4187;42.778;23.242;2023-04-08T10:56:44;95428.31;;;14.07;81.12
8298;BME280;4187;42.778;23.242;2023-04-08T10:59:14;95428.53;;;14.21;79.76
8298;BME280;4187;42.778;23.242;2023-04-08T11:01:45;95421.94;;;14.50;80.33
8298;BME280;4187;42.778;23.242;2023-04-08T11:04:13;95428.09;;;14.50;76.19
8298;BME280;4187;42.778;23.242;2023-04-08T11:06:41;95410.13;;;14.28;76.11
8298;BME280;4187;42.778;23.242;2023-04-08T11:09:09;95418.97;;;13.78;78.84
8298;BME280;4187;42.778;23.242;2023-04-08T11:11:36;95409.50;;;13.84;79.78
8298;BME280;4187;42.778;23.242;2023-04-08T11:14:03;95416.13;;;13.72;78.76
8298;BME280;4187;42.778;23.242;2023-04-08T11:16:32;95381.59;;;13.56;79.30
8298;BME280;4187;42.778;23.242;2023-04-08T11:19:01;95400.66;;;13.59;80.64
8298;BME280;4187;42.778;23.242;2023-04-08T11:21:29;95383.94;;;13.67;80.50
8298;BME280;4187;42.778;23.242;2023-04-08T11:23:57;95399.94;;;13.99;78.54
8298;BME280;4187;42.778;23.242;2023-04-08T11:26:25;95394.66;;;13.99;77.74
8298;BME280;4187;42.778;23.242;2023-04-08T11:28:54;95325.91;;;13.56;78.24
8298;BME280;4187;42.778;23.242;2023-04-08T11:31:22;95376.69;;;13.85;79.00
8298;BME280;4187;42.778;23.242;2023-04-08T11:33:52;95392.28;;;13.80;77.30
8298;BME280;4187;42.778;23.242;2023-04-08T11:36:19;95375.66;;;13.62;78.65
8298;BME280;4187;42.778;23.242;2023-04-08T11:38:47;95380.81;;;13.71;78.28
8298;BME280;4187;42.778;23.242;2023-04-08T11:41:14;95378.97;;;13.64;77.77
8298;BME280;4187;42.778;23.242;2023-04-08T11:43:55;95371.66;;;13.58;78.01
8298;BME280;4187;42.778;23.242;2023-04-08T11:46:23;95376.97;;;13.66;78.04
8298;BME280;4187;42.778;23.242;2023-04-08T11:49:04;95377.00;;;13.74;77.43
8298;BME280;4187;42.778;23.242;2023-04-08T11:51:32;95372.56;;;13.91;77.27
8298;BME280;4187;42.778;23.242;2023-04-08T11:54:00;95370.75;;;13.91;77.65
8298;BME280;4187;42.778;23.242;2023-04-08T11:56:28;95378.19;;;13.79;77.21
8298;BME280;4187;42.778;23.242;2023-04-08T11:58:58;95363.94;;;13.81;78.21
8298;BME280;4187;42.778;23.242;2023-04-08T12:01:25;95372.22;;;13.77;77.59
8298;BME280;4187;42.778;23.242;2023-04-08T12:03:53;95365.44;;;13.91;76.89
8298;BME280;4187;42.778;23.242;2023-04-08T12:06:22;95369.03;;;13.74;77.33
8298;BME280;4187;42.778;23.242;2023-04-08T12:08:51;95363.03;;;13.56;77.74
8298;BME280;4187;42.778;23.242;2023-04-08T12:11:18;95372.28;;;13.52;75.93
8298;BME280;4187;42.778;23.242;2023-04-08T12:13:45;95371.47;;;13.51;76.41
8298;BME280;4187;42.778;23.242;2023-04-08T12:16:14;95371.06;;;13.38;76.57
8298;BME280;4187;42.778;23.242;2023-04-08T12:18:41;95365.59;;;13.32;77.83
8298;BME280;4187;42.778;23.242;2023-04-08T12:21:08;95363.03;;;13.22;76.41
8298;BME280;4187;42.778;23.242;2023-04-08T12:23:37;95364.38;;;13.68;86.90
8298;BME280;4187;42.778;23.242;2023-04-08T12:26:04;95358.81;;;14.11;82.10
8298;BME280;4187;42.778;23.242;2023-04-08T12:28:31;95381.41;;;14.15;75.64
8298;BME280;4187;42.778;23.242;2023-04-08T12:30:59;95371.88;;;13.81;76.18
8298;BME280;4187;42.778;23.242;2023-04-08T12:33:26;95368.41;;;13.38;75.74
8298;BME280;4187;42.778;23.242;2023-04-08T12:35:53;95377.75;;;13.16;76.26
8298;BME280;4187;42.778;23.242;2023-04-08T12:38:21;95376.97;;;13.16;76.65
8298;BME280;4187;42.778;23.242;2023-04-08T12:40:50;95369.78;;;13.42;77.53
8298;BME280;4187;42.778;23.242;2023-04-08T12:43:16;95380.59;;;13.49;76.72
8298;BME280;4187;42.778;23.242;2023-04-08T12:45:43;95365.00;;;13.46;76.19
8298;BME280;4187;42.778;23.242;2023-04-08T12:48:10;95362.06;;;13.65;78.42
8298;BME280;4187;42.778;23.242;2023-04-08T12:50:37;95376.03;;;13.83;78.52
8298;BME280;4187;42.778;23.242;2023-04-08T12:53:04;95375.56;;;13.96;78.21
8298;BME280;4187;42.778;23.242;2023-04-08T12:55:31;95370.25;;;13.96;89.87
8298;BME280;4187;42.778;23.242;2023-04-08T12:57:59;95360.59;;;13.70;92.13
8298;BME280;4187;42.778;23.242;2023-04-08T13:00:26;95356.53;;;13.50;93.41
8298;BME280;4187;42.778;23.242;2023-04-08T13:02:53;95344.84;;;13.19;97.78
8298;BME280;4187;42.778;23.242;2023-04-08T13:05:20;95347.53;;;13.01;97.72
8298;BME280;4187;42.778;23.242;2023-04-08T13:07:47;95349.25;;;12.59;90.92
8298;BME280;4187;42.778;23.242;2023-04-08T13:10:13;95349.47;;;12.40;98.62
8298;BME280;4187;42.778;23.242;2023-04-08T13:12:40;95350.84;;;12.09;100.00
8298;BME280;4187;42.778;23.242;2023-04-08T13:15:10;95354.03;;;11.77;100.00
8298;BME280;4187;42.778;23.242;2023-04-08T13:17:37;95348.78;;;11.67;100.00